sensor_id;sensor_type;location;lat;lon;timestamp;temperature;humidity
17348;DHT22;8791;50.876;4.342;2024-01-10T00:00:06;-2.90;99.90
17348;DHT22;8791;50.876;4.342;2024-01-10T00:02:34;-2.90;99.90
17348;DHT22;8791;50.876;4.342;2024-01-10T00:05:01;-3.00;99.90
17348;DHT22;8791;50.876;4.342;2024-01-10T00:07:29;-3.10;99.90
17348;DHT22;8791;50.876;4.342;2024-01-10T00:09:56;-3.00;99.90
17348;DHT22;8791;50.876;4.342;2024-01-10T00:12:25;-3.00;99.90
17348;DHT22;8791;50.876;4.342;2024-01-10T00:14:53;-3.00;99.90
17348;DHT22;8791;50.876;4.342;2024-01-10T00:17:20;-3.00;99.90
17348;DHT22;8791;50.876;4.342;2024-01-10T00:19:47;-3.10;99.90
17348;DHT22;8791;50.876;4.342;2024-01-10T00:22:13;-3.10;99.90
17348;DHT22;8791;50.876;4.342;2024-01-10T00:24:40;-3.10;99.90
17348;DHT22;8791;50.876;4.342;2024-01-10T00:27:07;-3.20;99.90
17348;DHT22;8791;50.876;4.342;2024-01-10T00:29:35;-3.20;99.90
17348;DHT22;8791;50.876;4.342;2024-01-10T00:32:04;-3.30;99.90
17348;DHT22;8791;50.876;4.342;2024-01-10T00:34:31;-3.30;99.90
17348;DHT22;8791;50.876;4.342;2024-01-10T00:36:58;-3.30;99.90
17348;DHT22;8791;50.876;4.342;2024-01-10T00:39:25;-3.20;99.90
17348;DHT22;8791;50.876;4.342;2024-01-10T00:41:52;-3.10;99.90
17348;DHT22;8791;50.876;4.342;2024-01-10T00:44:19;-3.20;99.90
17348;DHT22;8791;50.876;4.342;2024-01-10T00:46:46;-3.20;99.90
17348;DHT22;8791;50.876;4.342;2024-01-10T00:49:14;-3.20;99.90
17348;DHT22;8791;50.876;4.342;2024-01-10T00:51:41;-3.30;99.90
17348;DHT22;8791;50.876;4.342;2024-01-10T00:54:08;-3.30;99.90
17348;DHT22;8791;50.876;4.342;2024-01-10T00:56:35;-3.20;99.90
17348;DHT22;8791;50.876;4.342;2024-01-10T00:59:02;-3.20;99.90
17348;DHT22;8791;50.876;4.342;2024-01-10T01:01:29;-3.20;99.90
17348;DHT22;8791;50.876;4.342;2024-01-10T01:03:56;-3.20;99.90
17348;DHT22;8791;50.876;4.342;2024-01-10T01:06:24;-3.20;99.90
17348;DHT22;8791;50.876;4.342;2024-01-10T01:08:51;-3.40;99.90
17348;DHT22;8791;50.876;4.342;2024-01-10T01:11:18;-3.30;99.90
17348;DHT22;8791;50.876;4.342;2024-01-10T01:13:45;-3.20;99.90
17348;DHT22;8791;50.876;4.342;2024-01-10T01:16:12;-3.20;99.90
17348;DHT22;8791;50.876;4.342;2024-01-10T01:18:39;-3.20;99.90
17348;DHT22;8791;50.876;4.342;2024-01-10T01:21:08;-3.30;99.90
17348;DHT22;8791;50.876;4.342;2024-01-10T01:23:36;-3.30;99.90
17348;DHT22;8791;50.876;4.342;2024-01-10T01:26:03;-3.20;99.90
17348;DHT22;8791;50.876;4.342;2024-01-10T01:28:30;-3.20;99.90
17348;DHT22;8791;50.876;4.342;2024-01-10T01:30:57;-3.40;99.90
17348;DHT22;8791;50.876;4.342;2024-01-10T01:33:24;-3.30;99.90
17348;DHT22;8791;50.876;4.342;2024-01-10T01:35:51;-3.30;99.90
17348;DHT22;8791;50.876;4.342;2024-01-10T01:38:19;-3.40;99.90
17348;DHT22;8791;50.876;4.342;2024-01-10T01:40:48;-3.30;99.90
17348;DHT22;8791;50.876;4.342;2024-01-10T01:43:19;-3.30;99.90
17348;DHT22;8791;50.876;4.342;2024-01-10T01:45:47;-3.40;99.90
17348;DHT22;8791;50.876;4.342;2024-01-10T01:48:17;-3.60;99.90
17348;DHT22;8791;50.876;4.342;2024-01-10T01:50:44;-3.70;99.90
17348;DHT22;8791;50.876;4.342;2024-01-10T01:53:13;-3.80;99.90
17348;DHT22;8791;50.876;4.342;2024-01-10T01:55:40;-3.70;99.90
17348;DHT22;8791;50.876;4.342;2024-01-10T01:58:09;-3.40;99.90
17348;DHT22;8791;50.876;4.342;2024-01-10T02:00:36;-3.40;99.90
17348;DHT22;8791;50.876;4.342;2024-01-10T02:03:05;-3.40;99.90
17348;DHT22;8791;50.876;4.342;2024-01-10T02:05:32;-3.40;99.90
17348;DHT22;8791;50.876;4.342;2024-01-10T02:07:59;-3.40;99.90
17348;DHT22;8791;50.876;4.342;2024-01-10T02:10:26;-3.50;99.90
17348;DHT22;8791;50.876;4.342;2024-01-10T02:12:53;-3.50;99.90
17348;DHT22;8791;50.876;4.342;2024-01-10T02:15:22;-3.50;99.90
17348;DHT22;8791;50.876;4.342;2024-01-10T02:17:49;-3.70;99.90
17348;DHT22;8791;50.876;4.342;2024-01-10T02:20:16;-3.70;99.90
17348;DHT22;8791;50.876;4.342;2024-01-10T02:22:43;-3.70;99.90
17348;DHT22;8791;50.876;4.342;2024-01-10T02:25:12;-3.70;99.90
17348;DHT22;8791;50.876;4.342;2024-01-10T02:27:40;-3.70;99.90
17348;DHT22;8791;50.876;4.342;2024-01-10T02:30:08;-3.60;99.90
17348;DHT22;8791;50.876;4.342;2024-01-10T02:32:36;-3.50;99.90
17348;DHT22;8791;50.876;4.342;2024-01-10T02:35:04;-3.50;99.90
17348;DHT22;8791;50.876;4.342;2024-01-10T02:37:31;-3.50;99.90
17348;DHT22;8791;50.876;4.342;2024-01-10T02:39:58;-3.60;99.90
17348;DHT22;8791;50.876;4.342;2024-01-10T02:42:27;-3.60;99.90
17348;DHT22;8791;50.876;4.342;2024-01-10T02:44:55;-3.50;99.90
17348;DHT22;8791;50.876;4.342;2024-01-10T02:47:22;-3.50;99.90
17348;DHT22;8791;50.876;4.342;2024-01-10T02:49:49;-3.60;99.90
17348;DHT22;8791;50.876;4.342;2024-01-10T02:52:16;-3.70;99.90
17348;DHT22;8791;50.876;4.342;2024-01-10T02:54:45;-3.60;99.90
17348;DHT22;8791;50.876;4.342;2024-01-10T02:57:12;-3.50;99.90
17348;DHT22;8791;50.876;4.342;2024-01-10T02:59:41;-3.40;99.90
17348;DHT22;8791;50.876;4.342;2024-01-10T03:02:08;-3.50;99.90
17348;DHT22;8791;50.876;4.342;2024-01-10T03:04:34;-3.60;99.90
17348;DHT22;8791;50.876;4.342;2024-01-10T03:07:02;-3.70;99.90
17348;DHT22;8791;50.876;4.342;2024-01-10T03:09:29;-3.70;99.90
17348;DHT22;8791;50.876;4.342;2024-01-10T03:11:56;-3.70;99.90
17348;DHT22;8791;50.876;4.342;2024-01-10T03:14:23;-3.70;99.90
17348;DHT22;8791;50.876;4.342;2024-01-10T03:16:51;-3.60;99.90
17348;DHT22;8791;50.876;4.342;2024-01-10T03:19:18;-3.70;99.90
17348;DHT22;8791;50.876;4.342;2024-01-10T03:21:45;-3.80;99.90
17348;DHT22;8791;50.876;4.342;2024-01-10T03:24:12;-3.90;99.90
17348;DHT22;8791;50.876;4.342;2024-01-10T03:26:39;-3.90;99.90
17348;DHT22;8791;50.876;4.342;2024-01-10T03:29:06;-3.80;99.90
17348;DHT22;8791;50.876;4.342;2024-01-10T03:31:33;-3.80;99.90
17348;DHT22;8791;50.876;4.342;2024-01-10T03:34:01;-3.80;99.90
17348;DHT22;8791;50.876;4.342;2024-01-10T03:36:29;-3.80;99.90
17348;DHT22;8791;50.876;4.342;2024-01-10T03:38:56;-3.80;99.90
17348;DHT22;8791;50.876;4.342;2024-01-10T03:41:23;-3.90;99.90
17348;DHT22;8791;50.876;4.342;2024-01-10T03:43:50;-4.10;99.90
17348;DHT22;8791;50.876;4.342;2024-01-10T03:46:17;-3.90;99.90
17348;DHT22;8791;50.876;4.342;2024-01-10T03:48:44;-4.00;99.90
17348;DHT22;8791;50.876;4.342;2024-01-10T03:51:16;-3.80;99.90
17348;DHT22;8791;50.876;4.342;2024-01-10T03:53:43;-3.70;99.90
17348;DHT22;8791;50.876;4.342;2024-01-10T03:56:10;-3.70;99.90
17348;DHT22;8791;50.876;4.342;2024-01-10T03:58:38;-3.80;99.90
17348;DHT22;8791;50.876;4.342;2024-01-10T04:01:05;-3.90;99.90
17348;DHT22;8791;50.876;4.342;2024-01-10T04:03:33;-3.90;99.90
17348;DHT22;8791;50.876;4.342;2024-01-10T04:06:00;-4.00;99.90
17348;DHT22;8791;50.876;4.342;2024-01-10T04:08:29;-4.00;99.90
17348;DHT22;8791;50.876;4.342;2024-01-10T04:10:56;-4.00;99.90
17348;DHT22;8791;50.876;4.342;2024-01-10T04:13:23;-4.00;99.90
17348;DHT22;8791;50.876;4.342;2024-01-10T04:15:50;-4.00;99.90
17348;DHT22;8791;50.876;4.342;2024-01-10T04:18:17;-4.00;99.90
17348;DHT22;8791;50.876;4.342;2024-01-10T04:20:44;-4.10;99.90
17348;DHT22;8791;50.876;4.342;2024-01-10T04:23:11;-4.10;99.90
17348;DHT22;8791;50.876;4.342;2024-01-10T04:25:39;-4.00;99.90
17348;DHT22;8791;50.876;4.342;2024-01-10T04:28:06;-3.80;99.90
17348;DHT22;8791;50.876;4.342;2024-01-10T04:30:33;-3.90;99.90
17348;DHT22;8791;50.876;4.342;2024-01-10T04:33:00;-4.00;99.90
17348;DHT22;8791;50.876;4.342;2024-01-10T04:35:27;-4.00;99.90
17348;DHT22;8791;50.876;4.342;2024-01-10T04:37:55;-4.00;99.90
17348;DHT22;8791;50.876;4.342;2024-01-10T04:40:22;-4.00;99.90
17348;DHT22;8791;50.876;4.342;2024-01-10T04:42:50;-4.10;99.90
17348;DHT22;8791;50.876;4.342;2024-01-10T04:45:17;-4.10;99.90
17348;DHT22;8791;50.876;4.342;2024-01-10T04:47:44;-4.10;99.90
17348;DHT22;8791;50.876;4.342;2024-01-10T04:50:11;-4.10;99.90
17348;DHT22;8791;50.876;4.342;2024-01-10T04:52:38;-4.00;99.90
17348;DHT22;8791;50.876;4.342;2024-01-10T04:55:06;-4.10;99.90
17348;DHT22;8791;50.876;4.342;2024-01-10T04:57:33;-4.10;99.90
17348;DHT22;8791;50.876;4.342;2024-01-10T05:00:02;-4.10;99.90
17348;DHT22;8791;50.876;4.342;2024-01-10T05:02:30;-4.10;99.90
17348;DHT22;8791;50.876;4.342;2024-01-10T05:04:57;-4.10;99.90
17348;DHT22;8791;50.876;4.342;2024-01-10T05:07:24;-4.20;99.90
17348;DHT22;8791;50.876;4.342;2024-01-10T05:09:51;-4.20;99.90
17348;DHT22;8791;50.876;4.342;2024-01-10T05:12:18;-4.30;99.90
17348;DHT22;8791;50.876;4.342;2024-01-10T05:14:45;-4.30;99.90
17348;DHT22;8791;50.876;4.342;2024-01-10T05:17:14;-4.40;99.90
17348;DHT22;8791;50.876;4.342;2024-01-10T05:19:41;-4.40;99.90
17348;DHT22;8791;50.876;4.342;2024-01-10T05:22:08;-4.30;99.90
17348;DHT22;8791;50.876;4.342;2024-01-10T05:24:35;-4.30;99.90
17348;DHT22;8791;50.876;4.342;2024-01-10T05:27:02;-4.40;99.90
17348;DHT22;8791;50.876;4.342;2024-01-10T05:29:29;-4.40;99.90
17348;DHT22;8791;50.876;4.342;2024-01-10T05:31:56;-4.30;99.90
17348;DHT22;8791;50.876;4.342;2024-01-10T05:34:24;-4.40;99.90
17348;DHT22;8791;50.876;4.342;2024-01-10T05:36:51;-4.30;99.90
17348;DHT22;8791;50.876;4.342;2024-01-10T05:39:19;-4.30;99.90
17348;DHT22;8791;50.876;4.342;2024-01-10T05:41:47;-4.30;99.90
17348;DHT22;8791;50.876;4.342;2024-01-10T05:44:14;-4.30;99.90
17348;DHT22;8791;50.876;4.342;2024-01-10T05:46:41;-4.30;99.90
17348;DHT22;8791;50.876;4.342;2024-01-10T05:49:09;-4.30;99.90
17348;DHT22;8791;50.876;4.342;2024-01-10T05:51:37;-4.30;99.90
17348;DHT22;8791;50.876;4.342;2024-01-10T05:54:04;-4.40;99.90
17348;DHT22;8791;50.876;4.342;2024-01-10T05:56:32;-4.40;99.90
17348;DHT22;8791;50.876;4.342;2024-01-10T05:58:59;-4.40;99.90
17348;DHT22;8791;50.876;4.342;2024-01-10T06:01:27;-4.60;99.90
17348;DHT22;8791;50.876;4.342;2024-01-10T06:03:54;-4.60;99.90
17348;DHT22;8791;50.876;4.342;2024-01-10T06:06:22;-4.60;99.90
17348;DHT22;8791;50.876;4.342;2024-01-10T06:08:51;-4.50;99.90
17348;DHT22;8791;50.876;4.342;2024-01-10T06:11:18;-4.50;99.90
17348;DHT22;8791;50.876;4.342;2024-01-10T06:13:45;-4.30;99.90
17348;DHT22;8791;50.876;4.342;2024-01-10T06:16:12;-4.40;99.90
17348;DHT22;8791;50.876;4.342;2024-01-10T06:18:39;-4.40;99.90
17348;DHT22;8791;50.876;4.342;2024-01-10T06:21:06;-4.40;99.90
17348;DHT22;8791;50.876;4.342;2024-01-10T06:23:33;-4.30;99.90
17348;DHT22;8791;50.876;4.342;2024-01-10T06:26:01;-4.30;99.90
17348;DHT22;8791;50.876;4.342;2024-01-10T06:28:29;-4.40;99.90
17348;DHT22;8791;50.876;4.342;2024-01-10T06:30:56;-4.40;99.90
17348;DHT22;8791;50.876;4.342;2024-01-10T06:33:23;-4.50;99.90
17348;DHT22;8791;50.876;4.342;2024-01-10T06:35:50;-4.50;99.90
17348;DHT22;8791;50.876;4.342;2024-01-10T06:38:16;-4.40;99.90
17348;DHT22;8791;50.876;4.342;2024-01-10T06:40:45;-4.50;99.90
17348;DHT22;8791;50.876;4.342;2024-01-10T06:43:14;-4.50;99.90
17348;DHT22;8791;50.876;4.342;2024-01-10T06:45:41;-4.40;99.90
17348;DHT22;8791;50.876;4.342;2024-01-10T06:48:09;-4.30;99.90
17348;DHT22;8791;50.876;4.342;2024-01-10T06:50:36;-4.30;99.90
17348;DHT22;8791;50.876;4.342;2024-01-10T06:53:03;-4.30;99.90
17348;DHT22;8791;50.876;4.342;2024-01-10T06:55:31;-4.20;99.90
17348;DHT22;8791;50.876;4.342;2024-01-10T06:57:58;-4.30;99.90
17348;DHT22;8791;50.876;4.342;2024-01-10T07:00:26;-4.30;99.90
17348;DHT22;8791;50.876;4.342;2024-01-10T07:02:53;-4.20;99.90
17348;DHT22;8791;50.876;4.342;2024-01-10T07:05:20;-4.40;99.90
17348;DHT22;8791;50.876;4.342;2024-01-10T07:07:47;-4.40;99.90
17348;DHT22;8791;50.876;4.342;2024-01-10T07:10:15;-4.30;99.90
17348;DHT22;8791;50.876;4.342;2024-01-10T07:12:42;-4.20;99.90
17348;DHT22;8791;50.876;4.342;2024-01-10T07:15:09;-4.20;99.90
17348;DHT22;8791;50.876;4.342;2024-01-10T07:17:38;-4.20;99.90
17348;DHT22;8791;50.876;4.342;2024-01-10T07:20:06;-4.20;99.90
17348;DHT22;8791;50.876;4.342;2024-01-10T07:22:34;-4.30;99.90
17348;DHT22;8791;50.876;4.342;2024-01-10T07:25:01;-4.20;99.90
17348;DHT22;8791;50.876;4.342;2024-01-10T07:27:29;-4.30;99.90
17348;DHT22;8791;50.876;4.342;2024-01-10T07:29:56;-4.30;99.90
17348;DHT22;8791;50.876;4.342;2024-01-10T07:32:23;-4.20;99.90
17348;DHT22;8791;50.876;4.342;2024-01-10T07:34:51;-4.30;99.90
17348;DHT22;8791;50.876;4.342;2024-01-10T07:37:18;-4.30;99.90
17348;DHT22;8791;50.876;4.342;2024-01-10T07:39:47;-4.40;99.90
17348;DHT22;8791;50.876;4.342;2024-01-10T07:42:16;-4.40;99.90
17348;DHT22;8791;50.876;4.342;2024-01-10T07:44:43;-4.40;99.90
17348;DHT22;8791;50.876;4.342;2024-01-10T07:47:10;-4.40;99.90
17348;DHT22;8791;50.876;4.342;2024-01-10T07:49:37;-4.40;99.90
17348;DHT22;8791;50.876;4.342;2024-01-10T07:52:06;-4.40;99.90
17348;DHT22;8791;50.876;4.342;2024-01-10T07:54:33;-4.50;99.90
17348;DHT22;8791;50.876;4.342;2024-01-10T07:57:00;-4.40;99.90
17348;DHT22;8791;50.876;4.342;2024-01-10T07:59:27;-4.40;99.90
17348;DHT22;8791;50.876;4.342;2024-01-10T08:01:55;-4.40;99.90
17348;DHT22;8791;50.876;4.342;2024-01-10T08:04:24;-4.40;99.90
17348;DHT22;8791;50.876;4.342;2024-01-10T08:06:51;-4.40;99.90
17348;DHT22;8791;50.876;4.342;2024-01-10T08:09:19;-4.40;99.90
17348;DHT22;8791;50.876;4.342;2024-01-10T08:11:47;-4.40;99.90
17348;DHT22;8791;50.876;4.342;2024-01-10T08:14:14;-4.40;99.90
17348;DHT22;8791;50.876;4.342;2024-01-10T08:16:42;-4.40;99.90
17348;DHT22;8791;50.876;4.342;2024-01-10T08:19:10;-4.50;99.90
17348;DHT22;8791;50.876;4.342;2024-01-10T08:21:37;-4.50;99.90
17348;DHT22;8791;50.876;4.342;2024-01-10T08:24:05;-4.60;99.90
17348;DHT22;8791;50.876;4.342;2024-01-10T08:26:34;-4.60;99.90
17348;DHT22;8791;50.876;4.342;2024-01-10T08:29:03;-4.60;99.90
17348;DHT22;8791;50.876;4.342;2024-01-10T08:31:30;-4.50;99.90
17348;DHT22;8791;50.876;4.342;2024-01-10T08:33:57;-4.60;99.90
17348;DHT22;8791;50.876;4.342;2024-01-10T08:36:24;-4.40;99.90
17348;DHT22;8791;50.876;4.342;2024-01-10T08:38:51;-4.50;99.90
17348;DHT22;8791;50.876;4.342;2024-01-10T08:41:18;-4.40;99.90
17348;DHT22;8791;50.876;4.342;2024-01-10T08:43:47;-4.50;99.90
17348;DHT22;8791;50.876;4.342;2024-01-10T08:46:14;-4.40;99.90
17348;DHT22;8791;50.876;4.342;2024-01-10T08:48:41;-4.20;99.90
17348;DHT22;8791;50.876;4.342;2024-01-10T08:51:08;-4.20;99.90
17348;DHT22;8791;50.876;4.342;2024-01-10T08:53:35;-4.20;99.90
17348;DHT22;8791;50.876;4.342;2024-01-10T08:56:03;-4.20;99.90
17348;DHT22;8791;50.876;4.342;2024-01-10T08:58:30;-4.30;99.90
17348;DHT22;8791;50.876;4.342;2024-01-10T09:00:58;-4.20;99.90
17348;DHT22;8791;50.876;4.342;2024-01-10T09:03:25;-4.30;99.90
17348;DHT22;8791;50.876;4.342;2024-01-10T09:05:52;-4.30;99.90
17348;DHT22;8791;50.876;4.342;2024-01-10T09:08:19;-4.20;99.90
17348;DHT22;8791;50.876;4.342;2024-01-10T09:10:46;-4.10;99.90
17348;DHT22;8791;50.876;4.342;2024-01-10T09:13:15;-4.10;99.90
17348;DHT22;8791;50.876;4.342;2024-01-10T09:15:43;-4.10;99.90
17348;DHT22;8791;50.876;4.342;2024-01-10T09:18:11;-4.20;99.90
17348;DHT22;8791;50.876;4.342;2024-01-10T09:20:38;-4.20;99.90
17348;DHT22;8791;50.876;4.342;2024-01-10T09:23:05;-4.20;99.90
17348;DHT22;8791;50.876;4.342;2024-01-10T09:25:32;-4.10;99.90
17348;DHT22;8791;50.876;4.342;2024-01-10T09:27:59;-4.00;99.90
17348;DHT22;8791;50.876;4.342;2024-01-10T09:30:26;-4.00;99.90
17348;DHT22;8791;50.876;4.342;2024-01-10T09:32:53;-4.00;99.90
17348;DHT22;8791;50.876;4.342;2024-01-10T09:35:23;-4.00;99.90
17348;DHT22;8791;50.876;4.342;2024-01-10T09:37:50;-3.90;99.90
17348;DHT22;8791;50.876;4.342;2024-01-10T09:40:19;-3.80;99.90
17348;DHT22;8791;50.876;4.342;2024-01-10T09:42:49;-3.80;99.90
17348;DHT22;8791;50.876;4.342;2024-01-10T09:45:19;-3.70;99.90
17348;DHT22;8791;50.876;4.342;2024-01-10T09:47:50;-3.60;99.90
17348;DHT22;8791;50.876;4.342;2024-01-10T09:50:18;-3.50;99.90
17348;DHT22;8791;50.876;4.342;2024-01-10T09:52:50;-3.50;99.90
17348;DHT22;8791;50.876;4.342;2024-01-10T09:55:20;-3.50;99.90
17348;DHT22;8791;50.876;4.342;2024-01-10T09:57:48;-3.40;99.90
17348;DHT22;8791;50.876;4.342;2024-01-10T10:00:15;-3.60;99.90
17348;DHT22;8791;50.876;4.342;2024-01-10T10:02:43;-3.70;99.90
17348;DHT22;8791;50.876;4.342;2024-01-10T10:05:14;-3.70;99.90
17348;DHT22;8791;50.876;4.342;2024-01-10T10:07:47;-3.80;99.90
17348;DHT22;8791;50.876;4.342;2024-01-10T10:10:15;-3.80;99.90
17348;DHT22;8791;50.876;4.342;2024-01-10T10:12:43;-3.70;99.90
17348;DHT22;8791;50.876;4.342;2024-01-10T10:15:11;-3.60;99.90
17348;DHT22;8791;50.876;4.342;2024-01-10T10:17:39;-3.50;99.90
17348;DHT22;8791;50.876;4.342;2024-01-10T10:20:13;-3.40;99.90
17348;DHT22;8791;50.876;4.342;2024-01-10T10:22:41;-3.20;99.90
17348;DHT22;8791;50.876;4.342;2024-01-10T10:25:18;-3.10;99.90
17348;DHT22;8791;50.876;4.342;2024-01-10T10:27:45;-3.00;99.90
17348;DHT22;8791;50.876;4.342;2024-01-10T10:30:12;-3.00;99.90
17348;DHT22;8791;50.876;4.342;2024-01-10T10:32:39;-3.00;99.90
17348;DHT22;8791;50.876;4.342;2024-01-10T10:35:07;-3.00;99.90
17348;DHT22;8791;50.876;4.342;2024-01-10T10:37:35;-2.90;99.90
17348;DHT22;8791;50.876;4.342;2024-01-10T10:40:02;-2.90;99.90
17348;DHT22;8791;50.876;4.342;2024-01-10T10:42:31;-2.80;99.90
17348;DHT22;8791;50.876;4.342;2024-01-10T10:45:03;-2.70;99.90
17348;DHT22;8791;50.876;4.342;2024-01-10T10:47:32;-2.70;99.90
17348;DHT22;8791;50.876;4.342;2024-01-10T10:50:03;-2.60;99.90
17348;DHT22;8791;50.876;4.342;2024-01-10T10:52:31;-2.60;99.90
17348;DHT22;8791;50.876;4.342;2024-01-10T10:54:59;-2.70;99.90
17348;DHT22;8791;50.876;4.342;2024-01-10T10:57:26;-2.70;99.90
17348;DHT22;8791;50.876;4.342;2024-01-10T10:59:55;-2.70;99.90
17348;DHT22;8791;50.876;4.342;2024-01-10T11:02:23;-2.60;99.90
17348;DHT22;8791;50.876;4.342;2024-01-10T11:04:53;-2.60;99.90
17348;DHT22;8791;50.876;4.342;2024-01-10T11:07:21;-2.60;99.90
17348;DHT22;8791;50.876;4.342;2024-01-10T11:09:49;-2.70;99.90
17348;DHT22;8791;50.876;4.342;2024-01-10T11:12:32;-2.70;99.90
17348;DHT22;8791;50.876;4.342;2024-01-10T11:15:18;-2.70;99.90
17348;DHT22;8791;50.876;4.342;2024-01-10T11:18:09;-2.50;99.90
17348;DHT22;8791;50.876;4.342;2024-01-10T11:20:54;-2.20;99.90
17348;DHT22;8791;50.876;4.342;2024-01-10T11:23:39;-2.20;99.90
17348;DHT22;8791;50.876;4.342;2024-01-10T11:26:07;-2.30;99.90
17348;DHT22;8791;50.876;4.342;2024-01-10T11:28:36;-2.30;99.90
17348;DHT22;8791;50.876;4.342;2024-01-10T11:31:06;-2.10;99.90
17348;DHT22;8791;50.876;4.342;2024-01-10T11:33:34;-2.00;99.90
17348;DHT22;8791;50.876;4.342;2024-01-10T11:36:09;-2.00;99.90
17348;DHT22;8791;50.876;4.342;2024-01-10T11:38:41;-1.90;99.90
17348;DHT22;8791;50.876;4.342;2024-01-10T11:41:11;-1.80;99.90
17348;DHT22;8791;50.876;4.342;2024-01-10T11:43:39;-1.90;99.90
17348;DHT22;8791;50.876;4.342;2024-01-10T11:46:08;-1.80;99.90
17348;DHT22;8791;50.876;4.342;2024-01-10T11:48:38;-1.80;99.90
17348;DHT22;8791;50.876;4.342;2024-01-10T11:51:06;-1.70;99.90
17348;DHT22;8791;50.876;4.342;2024-01-10T11:53:41;-1.70;99.90
17348;DHT22;8791;50.876;4.342;2024-01-10T11:56:12;-1.70;99.90
17348;DHT22;8791;50.876;4.342;2024-01-10T11:59:01;-1.80;99.90
17348;DHT22;8791;50.876;4.342;2024-01-10T12:01:31;-1.70;99.90
17348;DHT22;8791;50.876;4.342;2024-01-10T12:03:59;-1.80;99.90
17348;DHT22;8791;50.876;4.342;2024-01-10T12:06:26;-1.80;99.90
17348;DHT22;8791;50.876;4.342;2024-01-10T12:08:53;-1.70;99.90
17348;DHT22;8791;50.876;4.342;2024-01-10T12:11:20;-1.50;99.90
17348;DHT22;8791;50.876;4.342;2024-01-10T12:13:47;-1.50;99.90
17348;DHT22;8791;50.876;4.342;2024-01-10T12:16:15;-1.50;99.90
17348;DHT22;8791;50.876;4.342;2024-01-10T12:18:44;-1.50;99.90
17348;DHT22;8791;50.876;4.342;2024-01-10T12:21:11;-1.50;99.90
17348;DHT22;8791;50.876;4.342;2024-01-10T12:23:39;-1.60;99.90
17348;DHT22;8791;50.876;4.342;2024-01-10T12:26:08;-1.50;99.90
17348;DHT22;8791;50.876;4.342;2024-01-10T12:28:38;-1.30;99.90
17348;DHT22;8791;50.876;4.342;2024-01-10T12:31:05;-1.10;99.90
17348;DHT22;8791;50.876;4.342;2024-01-10T12:33:33;-1.10;99.90
17348;DHT22;8791;50.876;4.342;2024-01-10T12:36:07;-1.20;99.90
17348;DHT22;8791;50.876;4.342;2024-01-10T12:38:35;-1.20;99.90
17348;DHT22;8791;50.876;4.342;2024-01-10T12:41:06;-1.10;99.90
17348;DHT22;8791;50.876;4.342;2024-01-10T12:43:48;-1.10;99.90
17348;DHT22;8791;50.876;4.342;2024-01-10T12:46:16;-1.00;99.90
17348;DHT22;8791;50.876;4.342;2024-01-10T12:48:43;-1.10;99.90
17348;DHT22;8791;50.876;4.342;2024-01-10T12:51:13;-1.10;99.90
17348;DHT22;8791;50.876;4.342;2024-01-10T12:53:41;-1.10;99.90
17348;DHT22;8791;50.876;4.342;2024-01-10T12:56:11;-1.00;99.90
17348;DHT22;8791;50.876;4.342;2024-01-10T12:58:40;-1.00;99.90
17348;DHT22;8791;50.876;4.342;2024-01-10T13:01:08;-1.00;99.90
17348;DHT22;8791;50.876;4.342;2024-01-10T13:03:35;-1.00;99.90
17348;DHT22;8791;50.876;4.342;2024-01-10T13:06:03;-1.00;99.90
17348;DHT22;8791;50.876;4.342;2024-01-10T13:08:32;-0.90;99.90
17348;DHT22;8791;50.876;4.342;2024-01-10T13:10:59;-0.90;99.90
17348;DHT22;8791;50.876;4.342;2024-01-10T13:13:26;-0.80;99.90
17348;DHT22;8791;50.876;4.342;2024-01-10T13:15:53;-0.60;99.90
17348;DHT22;8791;50.876;4.342;2024-01-10T13:18:21;-0.60;99.90
17348;DHT22;8791;50.876;4.342;2024-01-10T13:20:48;-0.70;99.90
17348;DHT22;8791;50.876;4.342;2024-01-10T13:23:15;-0.70;99.90
17348;DHT22;8791;50.876;4.342;2024-01-10T13:25:45;-0.70;99.90
17348;DHT22;8791;50.876;4.342;2024-01-10T13:28:13;-0.60;99.90
17348;DHT22;8791;50.876;4.342;2024-01-10T13:30:41;-0.50;99.90
17348;DHT22;8791;50.876;4.342;2024-01-10T13:33:08;-0.40;99.90
17348;DHT22;8791;50.876;4.342;2024-01-10T13:35:35;-0.30;99.90
17348;DHT22;8791;50.876;4.342;2024-01-10T13:38:03;-0.20;99.90
17348;DHT22;8791;50.876;4.342;2024-01-10T13:40:30;-0.10;99.90
17348;DHT22;8791;50.876;4.342;2024-01-10T13:42:58;-0.20;99.90
17348;DHT22;8791;50.876;4.342;2024-01-10T13:45:28;-0.30;99.90
17348;DHT22;8791;50.876;4.342;2024-01-10T13:47:55;-0.30;99.90
17348;DHT22;8791;50.876;4.342;2024-01-10T13:50:22;-0.30;99.90
17348;DHT22;8791;50.876;4.342;2024-01-10T13:52:50;-0.10;99.90
17348;DHT22;8791;50.876;4.342;2024-01-10T13:55:17;-0.10;99.90
17348;DHT22;8791;50.876;4.342;2024-01-10T13:57:44;-0.20;99.90
17348;DHT22;8791;50.876;4.342;2024-01-10T14:00:13;-0.10;99.90
17348;DHT22;8791;50.876;4.342;2024-01-10T14:02:41;-0.10;99.90
17348;DHT22;8791;50.876;4.342;2024-01-10T14:05:08;0.00;99.90
17348;DHT22;8791;50.876;4.342;2024-01-10T14:07:36;0.00;99.90
17348;DHT22;8791;50.876;4.342;2024-01-10T14:10:03;-0.10;99.90
17348;DHT22;8791;50.876;4.342;2024-01-10T14:12:31;-0.20;99.90
17348;DHT22;8791;50.876;4.342;2024-01-10T14:14:58;-0.10;99.90
17348;DHT22;8791;50.876;4.342;2024-01-10T14:17:27;0.00;99.90
17348;DHT22;8791;50.876;4.342;2024-01-10T14:19:54;0.00;99.90
17348;DHT22;8791;50.876;4.342;2024-01-10T14:22:21;0.10;99.90
17348;DHT22;8791;50.876;4.342;2024-01-10T14:24:49;0.00;99.90
17348;DHT22;8791;50.876;4.342;2024-01-10T14:27:16;0.10;99.90
17348;DHT22;8791;50.876;4.342;2024-01-10T14:29:44;0.10;99.90
17348;DHT22;8791;50.876;4.342;2024-01-10T14:32:12;0.10;99.90
17348;DHT22;8791;50.876;4.342;2024-01-10T14:34:40;0.00;99.90
17348;DHT22;8791;50.876;4.342;2024-01-10T14:37:08;0.00;99.90
17348;DHT22;8791;50.876;4.342;2024-01-10T14:39:35;-0.10;99.90
17348;DHT22;8791;50.876;4.342;2024-01-10T14:42:08;-0.10;99.90
17348;DHT22;8791;50.876;4.342;2024-01-10T14:44:35;-0.10;99.90
17348;DHT22;8791;50.876;4.342;2024-01-10T14:47:03;-0.10;99.90
17348;DHT22;8791;50.876;4.342;2024-01-10T14:49:30;0.00;99.90
17348;DHT22;8791;50.876;4.342;2024-01-10T14:51:59;0.10;99.90
17348;DHT22;8791;50.876;4.342;2024-01-10T14:54:27;0.20;99.90
17348;DHT22;8791;50.876;4.342;2024-01-10T14:56:54;0.30;99.90
17348;DHT22;8791;50.876;4.342;2024-01-10T14:59:21;0.40;99.90
17348;DHT22;8791;50.876;4.342;2024-01-10T15:01:48;0.50;99.90
17348;DHT22;8791;50.876;4.342;2024-01-10T15:04:15;0.60;99.90
17348;DHT22;8791;50.876;4.342;2024-01-10T15:06:45;0.50;99.90
17348;DHT22;8791;50.876;4.342;2024-01-10T15:09:14;0.50;99.90
17348;DHT22;8791;50.876;4.342;2024-01-10T15:11:41;0.50;99.90
17348;DHT22;8791;50.876;4.342;2024-01-10T15:14:08;0.40;99.90
17348;DHT22;8791;50.876;4.342;2024-01-10T15:16:36;0.40;99.90
17348;DHT22;8791;50.876;4.342;2024-01-10T15:19:05;0.50;99.90
17348;DHT22;8791;50.876;4.342;2024-01-10T15:21:33;0.50;99.90
17348;DHT22;8791;50.876;4.342;2024-01-10T15:24:00;0.50;99.90
17348;DHT22;8791;50.876;4.342;2024-01-10T15:26:29;0.40;99.90
17348;DHT22;8791;50.876;4.342;2024-01-10T15:28:56;0.30;99.90
17348;DHT22;8791;50.876;4.342;2024-01-10T15:31:25;0.30;99.90
17348;DHT22;8791;50.876;4.342;2024-01-10T15:33:54;0.30;99.90
17348;DHT22;8791;50.876;4.342;2024-01-10T15:36:21;0.30;99.90
17348;DHT22;8791;50.876;4.342;2024-01-10T15:38:48;0.30;99.90
17348;DHT22;8791;50.876;4.342;2024-01-10T15:41:18;0.30;99.90
17348;DHT22;8791;50.876;4.342;2024-01-10T15:43:48;0.30;99.90
17348;DHT22;8791;50.876;4.342;2024-01-10T15:46:18;0.30;99.90
17348;DHT22;8791;50.876;4.342;2024-01-10T15:48:45;0.20;99.90
17348;DHT22;8791;50.876;4.342;2024-01-10T15:51:12;0.20;99.90